createdAt,value
2016-07-29T00:01:19.224Z,1000.66
2016-07-29T00:16:24.934Z,1000.62
2016-07-29T00:46:19.257Z,1000.46
2016-07-29T01:01:14.646Z,1000.46
2016-07-29T01:16:20.962Z,1000.5
2016-07-29T01:31:19.260Z,1000.52
2016-07-29T01:46:27.665Z,1000.56
2016-07-29T02:01:16.673Z,1000.55
2016-07-29T02:16:19.305Z,1000.5
2016-07-29T02:31:14.688Z,1000.56
2016-07-29T02:46:14.685Z,1000.53
2016-07-29T03:01:14.726Z,1000.49
2016-07-29T03:16:14.704Z,1000.42
2016-07-29T03:31:14.716Z,1000.58
2016-07-29T03:46:14.725Z,1000.55
2016-07-29T04:01:19.387Z,1000.65
2016-07-29T04:16:14.745Z,1000.74
2016-07-29T04:31:19.374Z,1000.77
2016-07-29T04:46:19.386Z,1000.86
2016-07-29T05:01:14.771Z,1000.81
2016-07-29T05:16:14.815Z,1000.97
2016-07-29T05:31:24.824Z,1000.99
2016-07-29T05:46:14.806Z,1001.08
2016-07-29T06:01:14.805Z,1001.03
2016-07-29T06:16:19.448Z,1001.01
2016-07-29T06:31:19.394Z,1000.93
2016-07-29T06:46:19.393Z,1000.85
2016-07-29T07:01:16.814Z,1000.83
2016-07-29T07:16:19.473Z,1000.96
2016-07-29T07:31:19.406Z,1000.93
2016-07-29T07:46:18.835Z,1000.91
2016-07-29T08:01:27.636Z,1000.7
2016-07-29T08:16:19.913Z,1000.79
2016-07-29T08:31:14.823Z,1000.92
2016-07-29T08:46:19.776Z,1000.98
2016-07-29T09:01:19.789Z,1001.04
2016-07-29T09:16:19.834Z,1000.95
2016-07-29T09:31:16.986Z,1000.99
2016-07-29T09:46:16.988Z,1000.96
2016-07-29T10:01:16.990Z,1000.7
2016-07-29T10:16:14.903Z,1000.65
2016-07-29T10:31:14.956Z,1000.57
2016-07-29T10:46:14.918Z,1000.38
2016-07-29T11:01:18.924Z,1000.17
2016-07-29T11:16:27.758Z,1000.05
2016-07-29T11:31:17.007Z,1000
2016-07-29T11:46:21.044Z,999.92
2016-07-29T12:01:21.058Z,999.77
2016-07-29T12:16:19.541Z,999.82
2016-07-29T12:31:14.966Z,999.62
2016-07-29T12:46:19.574Z,999.52
2016-07-29T13:01:17.075Z,999.42
2016-07-29T13:16:14.989Z,999.4
2016-07-29T13:31:17.952Z,999.56
2016-07-29T13:46:15.006Z,999.67
2016-07-29T14:01:15.051Z,999.56
2016-07-29T14:16:15.017Z,999.47
2016-07-29T14:31:19.626Z,999.33
2016-07-29T14:46:17.034Z,999.46
2016-07-29T15:01:21.307Z,999.33
2016-07-29T15:16:19.684Z,999.14
2016-07-29T15:31:20.012Z,999.08
2016-07-29T15:46:20.017Z,998.8
2016-07-29T16:01:19.680Z,998.85
2016-07-29T16:16:20.091Z,999.06
2016-07-29T16:31:21.315Z,998.85
2016-07-29T16:46:21.462Z,998.94
2016-07-29T17:01:35.877Z,998.87
2016-07-29T17:16:15.174Z,998.66
2016-07-29T17:31:15.169Z,998.62
2016-07-29T17:46:31.755Z,998.66
2016-07-29T18:01:35.867Z,998.72
2016-07-29T18:16:15.224Z,998.86
2016-07-29T18:31:15.230Z,998.91
2016-07-29T18:46:15.219Z,998.97
2016-07-29T19:01:15.234Z,998.96
2016-07-29T19:16:15.204Z,999.17
2016-07-29T19:31:19.869Z,999.43
2016-07-29T19:46:15.161Z,999.62
2016-07-29T20:01:19.747Z,999.52
2016-07-29T20:16:15.164Z,999.67
2016-07-29T20:31:19.836Z,999.64
2016-07-29T20:46:15.322Z,999.7
2016-07-29T21:01:32.150Z,999.86
2016-07-29T21:16:28.110Z,999.76
2016-07-29T21:31:28.195Z,999.86
2016-07-29T21:46:21.556Z,999.99
2016-07-29T22:01:29.402Z,999.75
2016-07-29T22:16:17.436Z,999.82
2016-07-29T22:31:24.549Z,999.92
2016-07-29T22:46:19.996Z,999.91
2016-07-29T23:01:17.315Z,999.99
2016-07-29T23:16:28.590Z,1000.07
2016-07-29T23:31:15.378Z,1000.08
2016-07-29T23:46:33.845Z,1000.11
